sensor_id;sensor_type;location;lat;lon;timestamp;P1;durP1;ratioP1;P2;durP2;ratioP2
37311;SDS011;23197;53.912;9.138;2022-11-20T00:01:10;4.37;;;2.00;;
37311;SDS011;23197;53.912;9.138;2022-11-20T00:03:37;4.20;;;1.97;;
37311;SDS011;23197;53.912;9.138;2022-11-20T00:06:04;5.27;;;2.30;;
37311;SDS011;23197;53.912;9.138;2022-11-20T00:08:31;4.40;;;1.97;;
37311;SDS011;23197;53.912;9.138;2022-11-20T00:10:57;5.90;;;2.50;;
37311;SDS011;23197;53.912;9.138;2022-11-20T00:13:22;5.50;;;2.07;;
37311;SDS011;23197;53.912;9.138;2022-11-20T00:15:48;5.87;;;2.13;;
37311;SDS011;23197;53.912;9.138;2022-11-20T00:18:13;4.03;;;1.87;;
37311;SDS011;23197;53.912;9.138;2022-11-20T00:20:39;4.97;;;1.93;;
37311;SDS011;23197;53.912;9.138;2022-11-20T00:23:04;4.63;;;1.90;;
37311;SDS011;23197;53.912;9.138;2022-11-20T00:25:33;4.73;;;2.00;;
37311;SDS011;23197;53.912;9.138;2022-11-20T00:27:59;5.37;;;1.90;;
37311;SDS011;23197;53.912;9.138;2022-11-20T00:30:25;4.67;;;2.03;;
37311;SDS011;23197;53.912;9.138;2022-11-20T00:32:50;3.73;;;2.23;;
37311;SDS011;23197;53.912;9.138;2022-11-20T00:35:16;5.33;;;2.20;;
37311;SDS011;23197;53.912;9.138;2022-11-20T00:37:41;4.33;;;2.40;;
37311;SDS011;23197;53.912;9.138;2022-11-20T00:40:07;3.87;;;1.83;;
37311;SDS011;23197;53.912;9.138;2022-11-20T00:42:32;4.23;;;2.20;;
37311;SDS011;23197;53.912;9.138;2022-11-20T00:44:58;4.50;;;2.17;;
37311;SDS011;23197;53.912;9.138;2022-11-20T00:47:24;4.93;;;2.40;;
37311;SDS011;23197;53.912;9.138;2022-11-20T00:49:49;4.37;;;2.20;;
37311;SDS011;23197;53.912;9.138;2022-11-20T00:52:15;4.80;;;2.17;;
37311;SDS011;23197;53.912;9.138;2022-11-20T00:54:40;5.20;;;2.20;;
37311;SDS011;23197;53.912;9.138;2022-11-20T00:57:06;4.03;;;2.03;;
37311;SDS011;23197;53.912;9.138;2022-11-20T00:59:31;6.43;;;2.70;;
37311;SDS011;23197;53.912;9.138;2022-11-20T01:01:57;5.17;;;2.33;;
37311;SDS011;23197;53.912;9.138;2022-11-20T01:04:22;5.27;;;2.30;;
37311;SDS011;23197;53.912;9.138;2022-11-20T01:06:47;5.10;;;2.57;;
37311;SDS011;23197;53.912;9.138;2022-11-20T01:09:13;4.37;;;2.13;;
37311;SDS011;23197;53.912;9.138;2022-11-20T01:11:40;4.87;;;2.40;;
37311;SDS011;23197;53.912;9.138;2022-11-20T01:14:09;7.20;;;2.50;;
37311;SDS011;23197;53.912;9.138;2022-11-20T01:16:37;6.00;;;2.00;;
37311;SDS011;23197;53.912;9.138;2022-11-20T01:19:06;4.37;;;1.77;;
37311;SDS011;23197;53.912;9.138;2022-11-20T01:21:36;4.03;;;1.97;;
37311;SDS011;23197;53.912;9.138;2022-11-20T01:24:04;5.33;;;2.00;;
37311;SDS011;23197;53.912;9.138;2022-11-20T01:26:31;4.53;;;2.23;;
37311;SDS011;23197;53.912;9.138;2022-11-20T01:28:59;4.57;;;2.00;;
37311;SDS011;23197;53.912;9.138;2022-11-20T01:31:30;3.50;;;2.07;;
37311;SDS011;23197;53.912;9.138;2022-11-20T01:33:58;4.37;;;2.07;;
37311;SDS011;23197;53.912;9.138;2022-11-20T01:36:27;7.30;;;3.70;;
37311;SDS011;23197;53.912;9.138;2022-11-20T01:38:55;9.13;;;4.67;;
37311;SDS011;23197;53.912;9.138;2022-11-20T01:41:23;12.13;;;5.40;;
37311;SDS011;23197;53.912;9.138;2022-11-20T01:44:12;7.00;;;3.23;;
37311;SDS011;23197;53.912;9.138;2022-11-20T01:46:40;5.77;;;3.10;;
37311;SDS011;23197;53.912;9.138;2022-11-20T01:49:21;4.50;;;2.20;;
37311;SDS011;23197;53.912;9.138;2022-11-20T01:51:56;4.90;;;2.40;;
37311;SDS011;23197;53.912;9.138;2022-11-20T01:54:29;5.72;;;2.10;;
37311;SDS011;23197;53.912;9.138;2022-11-20T01:57:01;4.60;;;2.27;;
37311;SDS011;23197;53.912;9.138;2022-11-20T01:59:30;4.33;;;2.13;;
37311;SDS011;23197;53.912;9.138;2022-11-20T02:01:56;4.33;;;2.00;;
37311;SDS011;23197;53.912;9.138;2022-11-20T02:04:22;5.23;;;2.03;;
37311;SDS011;23197;53.912;9.138;2022-11-20T02:06:49;4.93;;;2.20;;
37311;SDS011;23197;53.912;9.138;2022-11-20T02:09:18;4.33;;;1.87;;
37311;SDS011;23197;53.912;9.138;2022-11-20T02:11:44;3.90;;;1.93;;
37311;SDS011;23197;53.912;9.138;2022-11-20T02:14:09;3.93;;;2.10;;
37311;SDS011;23197;53.912;9.138;2022-11-20T02:16:39;4.10;;;2.03;;
37311;SDS011;23197;53.912;9.138;2022-11-20T02:19:19;4.40;;;1.87;;
37311;SDS011;23197;53.912;9.138;2022-11-20T02:24:43;3.70;;;1.63;;
37311;SDS011;23197;53.912;9.138;2022-11-20T02:27:14;4.87;;;2.10;;
37311;SDS011;23197;53.912;9.138;2022-11-20T02:29:53;7.00;;;2.43;;
37311;SDS011;23197;53.912;9.138;2022-11-20T02:32:27;4.37;;;2.10;;
37311;SDS011;23197;53.912;9.138;2022-11-20T02:34:54;4.40;;;1.87;;
37311;SDS011;23197;53.912;9.138;2022-11-20T02:37:20;3.70;;;1.80;;
37311;SDS011;23197;53.912;9.138;2022-11-20T02:39:47;4.30;;;2.00;;
37311;SDS011;23197;53.912;9.138;2022-11-20T02:42:15;5.43;;;2.30;;
37311;SDS011;23197;53.912;9.138;2022-11-20T02:44:40;5.43;;;2.13;;
37311;SDS011;23197;53.912;9.138;2022-11-20T02:47:06;4.47;;;2.00;;
37311;SDS011;23197;53.912;9.138;2022-11-20T02:49:32;5.07;;;2.27;;
37311;SDS011;23197;53.912;9.138;2022-11-20T02:51:58;4.63;;;2.10;;
37311;SDS011;23197;53.912;9.138;2022-11-20T02:54:24;4.40;;;2.10;;
37311;SDS011;23197;53.912;9.138;2022-11-20T02:56:50;5.43;;;2.00;;
37311;SDS011;23197;53.912;9.138;2022-11-20T02:59:15;5.27;;;1.90;;
37311;SDS011;23197;53.912;9.138;2022-11-20T03:01:41;4.60;;;2.00;;
37311;SDS011;23197;53.912;9.138;2022-11-20T03:04:07;4.20;;;1.90;;
37311;SDS011;23197;53.912;9.138;2022-11-20T03:06:32;5.93;;;2.13;;
37311;SDS011;23197;53.912;9.138;2022-11-20T03:08:58;4.00;;;2.00;;
37311;SDS011;23197;53.912;9.138;2022-11-20T03:11:23;6.30;;;2.20;;
37311;SDS011;23197;53.912;9.138;2022-11-20T03:13:49;5.03;;;2.23;;
37311;SDS011;23197;53.912;9.138;2022-11-20T03:16:18;4.87;;;2.10;;
37311;SDS011;23197;53.912;9.138;2022-11-20T03:18:45;5.53;;;2.10;;
37311;SDS011;23197;53.912;9.138;2022-11-20T03:21:11;4.80;;;2.00;;
37311;SDS011;23197;53.912;9.138;2022-11-20T03:23:39;4.70;;;2.10;;
37311;SDS011;23197;53.912;9.138;2022-11-20T03:26:09;5.20;;;2.03;;
37311;SDS011;23197;53.912;9.138;2022-11-20T03:28:40;4.03;;;1.90;;
37311;SDS011;23197;53.912;9.138;2022-11-20T03:31:11;4.27;;;2.23;;
37311;SDS011;23197;53.912;9.138;2022-11-20T03:33:39;4.67;;;2.20;;
37311;SDS011;23197;53.912;9.138;2022-11-20T03:36:06;3.80;;;1.60;;
37311;SDS011;23197;53.912;9.138;2022-11-20T03:38:34;4.77;;;2.07;;
37311;SDS011;23197;53.912;9.138;2022-11-20T03:41:10;4.40;;;2.10;;
37311;SDS011;23197;53.912;9.138;2022-11-20T03:43:37;3.60;;;1.80;;
37311;SDS011;23197;53.912;9.138;2022-11-20T03:46:03;4.60;;;1.90;;
37311;SDS011;23197;53.912;9.138;2022-11-20T03:48:29;4.97;;;1.77;;
37311;SDS011;23197;53.912;9.138;2022-11-20T03:51:12;3.20;;;1.70;;
37311;SDS011;23197;53.912;9.138;2022-11-20T03:53:39;6.57;;;2.10;;
37311;SDS011;23197;53.912;9.138;2022-11-20T03:56:06;4.13;;;1.67;;
37311;SDS011;23197;53.912;9.138;2022-11-20T03:58:33;3.27;;;1.63;;
37311;SDS011;23197;53.912;9.138;2022-11-20T04:01:06;5.30;;;2.20;;
37311;SDS011;23197;53.912;9.138;2022-11-20T04:03:34;3.80;;;1.83;;
37311;SDS011;23197;53.912;9.138;2022-11-20T04:06:01;5.33;;;1.90;;
37311;SDS011;23197;53.912;9.138;2022-11-20T04:08:31;4.97;;;2.30;;
37311;SDS011;23197;53.912;9.138;2022-11-20T04:11:07;5.20;;;2.50;;
37311;SDS011;23197;53.912;9.138;2022-11-20T04:13:36;6.60;;;2.60;;
37311;SDS011;23197;53.912;9.138;2022-11-20T04:16:02;6.30;;;2.57;;
37311;SDS011;23197;53.912;9.138;2022-11-20T04:18:28;5.53;;;2.43;;
37311;SDS011;23197;53.912;9.138;2022-11-20T04:20:53;4.70;;;2.40;;
37311;SDS011;23197;53.912;9.138;2022-11-20T04:23:19;4.90;;;1.87;;
37311;SDS011;23197;53.912;9.138;2022-11-20T04:25:44;3.53;;;1.87;;
37311;SDS011;23197;53.912;9.138;2022-11-20T04:28:09;4.47;;;2.03;;
37311;SDS011;23197;53.912;9.138;2022-11-20T04:30:35;5.40;;;2.10;;
37311;SDS011;23197;53.912;9.138;2022-11-20T04:33:00;4.20;;;1.90;;
37311;SDS011;23197;53.912;9.138;2022-11-20T04:35:26;4.60;;;2.20;;
37311;SDS011;23197;53.912;9.138;2022-11-20T04:37:51;4.83;;;2.00;;
37311;SDS011;23197;53.912;9.138;2022-11-20T04:40:17;4.37;;;2.10;;
37311;SDS011;23197;53.912;9.138;2022-11-20T04:42:42;4.70;;;2.07;;
37311;SDS011;23197;53.912;9.138;2022-11-20T04:45:08;4.67;;;2.00;;
37311;SDS011;23197;53.912;9.138;2022-11-20T04:47:33;4.00;;;1.67;;
37311;SDS011;23197;53.912;9.138;2022-11-20T04:49:59;4.97;;;2.10;;
37311;SDS011;23197;53.912;9.138;2022-11-20T04:52:24;6.27;;;2.63;;
37311;SDS011;23197;53.912;9.138;2022-11-20T04:54:50;5.20;;;2.50;;
37311;SDS011;23197;53.912;9.138;2022-11-20T04:57:17;4.03;;;2.10;;
37311;SDS011;23197;53.912;9.138;2022-11-20T04:59:43;3.73;;;1.70;;
37311;SDS011;23197;53.912;9.138;2022-11-20T05:02:09;5.33;;;1.83;;
37311;SDS011;23197;53.912;9.138;2022-11-20T05:04:35;4.93;;;2.00;;
37311;SDS011;23197;53.912;9.138;2022-11-20T05:07:00;4.90;;;2.17;;
37311;SDS011;23197;53.912;9.138;2022-11-20T05:09:26;4.63;;;2.10;;
37311;SDS011;23197;53.912;9.138;2022-11-20T05:11:51;4.77;;;2.00;;
37311;SDS011;23197;53.912;9.138;2022-11-20T05:14:16;5.77;;;2.10;;
37311;SDS011;23197;53.912;9.138;2022-11-20T05:16:42;4.60;;;1.90;;
37311;SDS011;23197;53.912;9.138;2022-11-20T05:19:07;5.20;;;2.47;;
37311;SDS011;23197;53.912;9.138;2022-11-20T05:21:33;7.13;;;2.80;;
37311;SDS011;23197;53.912;9.138;2022-11-20T05:23:59;4.10;;;2.10;;
37311;SDS011;23197;53.912;9.138;2022-11-20T05:26:24;5.57;;;2.23;;
37311;SDS011;23197;53.912;9.138;2022-11-20T05:28:50;5.17;;;2.23;;
37311;SDS011;23197;53.912;9.138;2022-11-20T05:31:17;5.33;;;2.10;;
37311;SDS011;23197;53.912;9.138;2022-11-20T05:33:44;4.23;;;2.10;;
37311;SDS011;23197;53.912;9.138;2022-11-20T05:36:10;4.10;;;1.90;;
37311;SDS011;23197;53.912;9.138;2022-11-20T05:38:40;7.37;;;2.30;;
37311;SDS011;23197;53.912;9.138;2022-11-20T05:41:10;5.97;;;2.30;;
37311;SDS011;23197;53.912;9.138;2022-11-20T05:43:37;6.47;;;2.50;;
37311;SDS011;23197;53.912;9.138;2022-11-20T05:46:04;4.40;;;1.90;;
37311;SDS011;23197;53.912;9.138;2022-11-20T05:48:31;4.60;;;2.07;;
37311;SDS011;23197;53.912;9.138;2022-11-20T05:50:58;6.40;;;2.20;;
37311;SDS011;23197;53.912;9.138;2022-11-20T05:53:25;5.40;;;2.00;;
37311;SDS011;23197;53.912;9.138;2022-11-20T05:56:00;6.83;;;2.43;;
37311;SDS011;23197;53.912;9.138;2022-11-20T05:58:28;4.77;;;2.17;;
37311;SDS011;23197;53.912;9.138;2022-11-20T06:00:53;5.53;;;2.17;;
37311;SDS011;23197;53.912;9.138;2022-11-20T06:03:20;6.97;;;3.20;;
37311;SDS011;23197;53.912;9.138;2022-11-20T06:05:45;6.57;;;3.03;;
37311;SDS011;23197;53.912;9.138;2022-11-20T06:08:11;5.67;;;2.90;;
37311;SDS011;23197;53.912;9.138;2022-11-20T06:10:36;4.93;;;2.60;;
37311;SDS011;23197;53.912;9.138;2022-11-20T06:13:02;5.17;;;2.20;;
37311;SDS011;23197;53.912;9.138;2022-11-20T06:15:27;4.93;;;2.20;;
37311;SDS011;23197;53.912;9.138;2022-11-20T06:17:53;4.87;;;2.40;;
37311;SDS011;23197;53.912;9.138;2022-11-20T06:20:19;6.20;;;2.53;;
37311;SDS011;23197;53.912;9.138;2022-11-20T06:22:45;5.40;;;2.50;;
37311;SDS011;23197;53.912;9.138;2022-11-20T06:25:11;4.20;;;2.17;;
37311;SDS011;23197;53.912;9.138;2022-11-20T06:27:36;4.97;;;2.47;;
37311;SDS011;23197;53.912;9.138;2022-11-20T06:30:02;6.10;;;3.00;;
37311;SDS011;23197;53.912;9.138;2022-11-20T06:32:28;5.70;;;2.67;;
37311;SDS011;23197;53.912;9.138;2022-11-20T06:34:54;7.40;;;3.20;;
37311;SDS011;23197;53.912;9.138;2022-11-20T06:37:19;6.20;;;2.80;;
37311;SDS011;23197;53.912;9.138;2022-11-20T06:39:45;6.87;;;3.27;;
37311;SDS011;23197;53.912;9.138;2022-11-20T06:42:10;7.50;;;4.30;;
37311;SDS011;23197;53.912;9.138;2022-11-20T06:44:36;7.53;;;3.77;;
37311;SDS011;23197;53.912;9.138;2022-11-20T06:47:01;6.30;;;3.27;;
37311;SDS011;23197;53.912;9.138;2022-11-20T06:49:27;7.00;;;3.67;;
37311;SDS011;23197;53.912;9.138;2022-11-20T06:51:52;7.73;;;3.70;;
37311;SDS011;23197;53.912;9.138;2022-11-20T06:54:18;7.73;;;3.83;;
37311;SDS011;23197;53.912;9.138;2022-11-20T06:56:46;6.63;;;3.80;;
37311;SDS011;23197;53.912;9.138;2022-11-20T06:59:14;7.40;;;3.83;;
37311;SDS011;23197;53.912;9.138;2022-11-20T07:01:40;5.67;;;3.30;;
37311;SDS011;23197;53.912;9.138;2022-11-20T07:04:05;7.30;;;3.73;;
37311;SDS011;23197;53.912;9.138;2022-11-20T07:06:31;7.63;;;4.10;;
37311;SDS011;23197;53.912;9.138;2022-11-20T07:08:57;6.83;;;3.33;;
37311;SDS011;23197;53.912;9.138;2022-11-20T07:11:22;7.40;;;3.37;;
37311;SDS011;23197;53.912;9.138;2022-11-20T07:13:48;7.27;;;3.83;;
37311;SDS011;23197;53.912;9.138;2022-11-20T07:16:14;7.60;;;4.00;;
37311;SDS011;23197;53.912;9.138;2022-11-20T07:18:40;6.00;;;3.47;;
37311;SDS011;23197;53.912;9.138;2022-11-20T07:21:07;5.80;;;3.23;;
37311;SDS011;23197;53.912;9.138;2022-11-20T07:23:34;7.03;;;3.50;;
37311;SDS011;23197;53.912;9.138;2022-11-20T07:26:07;7.20;;;3.60;;
37311;SDS011;23197;53.912;9.138;2022-11-20T07:28:35;7.77;;;3.70;;
37311;SDS011;23197;53.912;9.138;2022-11-20T07:31:02;6.03;;;3.60;;
37311;SDS011;23197;53.912;9.138;2022-11-20T07:33:28;6.43;;;3.30;;
37311;SDS011;23197;53.912;9.138;2022-11-20T07:35:53;7.20;;;3.60;;
37311;SDS011;23197;53.912;9.138;2022-11-20T07:38:19;8.03;;;4.37;;
37311;SDS011;23197;53.912;9.138;2022-11-20T07:40:44;10.10;;;5.50;;
37311;SDS011;23197;53.912;9.138;2022-11-20T07:43:10;10.20;;;5.90;;
37311;SDS011;23197;53.912;9.138;2022-11-20T07:45:35;9.77;;;5.40;;
37311;SDS011;23197;53.912;9.138;2022-11-20T07:48:01;7.97;;;4.90;;
37311;SDS011;23197;53.912;9.138;2022-11-20T07:50:27;8.60;;;4.90;;
37311;SDS011;23197;53.912;9.138;2022-11-20T07:52:59;7.27;;;4.63;;
37311;SDS011;23197;53.912;9.138;2022-11-20T07:55:25;8.38;;;4.75;;
37311;SDS011;23197;53.912;9.138;2022-11-20T07:57:54;9.37;;;4.70;;
37311;SDS011;23197;53.912;9.138;2022-11-20T08:00:21;7.13;;;4.33;;
37311;SDS011;23197;53.912;9.138;2022-11-20T08:02:47;8.33;;;4.10;;
37311;SDS011;23197;53.912;9.138;2022-11-20T08:05:12;8.10;;;4.00;;
37311;SDS011;23197;53.912;9.138;2022-11-20T08:07:41;8.00;;;4.30;;
37311;SDS011;23197;53.912;9.138;2022-11-20T08:10:09;6.60;;;3.53;;
37311;SDS011;23197;53.912;9.138;2022-11-20T08:12:36;7.30;;;3.63;;
37311;SDS011;23197;53.912;9.138;2022-11-20T08:15:19;6.22;;;3.38;;
37311;SDS011;23197;53.912;9.138;2022-11-20T08:17:45;6.80;;;3.60;;
37311;SDS011;23197;53.912;9.138;2022-11-20T08:20:11;5.97;;;3.43;;
37311;SDS011;23197;53.912;9.138;2022-11-20T08:22:36;7.87;;;3.50;;
37311;SDS011;23197;53.912;9.138;2022-11-20T08:25:02;7.10;;;3.63;;
37311;SDS011;23197;53.912;9.138;2022-11-20T08:27:28;6.37;;;3.77;;
37311;SDS011;23197;53.912;9.138;2022-11-20T08:29:53;7.17;;;3.97;;
37311;SDS011;23197;53.912;9.138;2022-11-20T08:32:19;6.50;;;3.30;;
37311;SDS011;23197;53.912;9.138;2022-11-20T08:34:44;6.80;;;3.57;;
37311;SDS011;23197;53.912;9.138;2022-11-20T08:37:10;7.40;;;3.37;;
37311;SDS011;23197;53.912;9.138;2022-11-20T08:39:35;8.13;;;3.70;;
37311;SDS011;23197;53.912;9.138;2022-11-20T08:42:00;6.37;;;3.57;;
37311;SDS011;23197;53.912;9.138;2022-11-20T08:44:26;6.37;;;3.60;;
37311;SDS011;23197;53.912;9.138;2022-11-20T08:46:51;7.87;;;3.83;;
37311;SDS011;23197;53.912;9.138;2022-11-20T08:49:17;8.10;;;3.47;;
37311;SDS011;23197;53.912;9.138;2022-11-20T08:51:43;7.73;;;4.03;;
37311;SDS011;23197;53.912;9.138;2022-11-20T08:54:08;8.10;;;3.63;;
37311;SDS011;23197;53.912;9.138;2022-11-20T08:56:34;6.50;;;3.57;;
37311;SDS011;23197;53.912;9.138;2022-11-20T08:59:00;7.07;;;3.50;;
37311;SDS011;23197;53.912;9.138;2022-11-20T09:01:27;7.83;;;4.20;;
37311;SDS011;23197;53.912;9.138;2022-11-20T09:03:55;7.43;;;3.93;;
37311;SDS011;23197;53.912;9.138;2022-11-20T09:06:22;8.90;;;4.10;;
37311;SDS011;23197;53.912;9.138;2022-11-20T09:08:48;7.23;;;3.90;;
37311;SDS011;23197;53.912;9.138;2022-11-20T09:11:17;8.13;;;4.30;;
37311;SDS011;23197;53.912;9.138;2022-11-20T09:13:43;8.50;;;4.23;;
37311;SDS011;23197;53.912;9.138;2022-11-20T09:16:08;9.77;;;4.80;;
37311;SDS011;23197;53.912;9.138;2022-11-20T09:18:34;7.63;;;4.30;;
37311;SDS011;23197;53.912;9.138;2022-11-20T09:21:10;9.53;;;4.70;;
37311;SDS011;23197;53.912;9.138;2022-11-20T09:26:04;7.30;;;3.70;;
37311;SDS011;23197;53.912;9.138;2022-11-20T09:28:30;7.27;;;4.10;;
37311;SDS011;23197;53.912;9.138;2022-11-20T09:30:56;7.70;;;3.93;;
37311;SDS011;23197;53.912;9.138;2022-11-20T09:33:22;9.30;;;4.90;;
37311;SDS011;23197;53.912;9.138;2022-11-20T09:35:47;7.97;;;4.07;;
37311;SDS011;23197;53.912;9.138;2022-11-20T09:38:13;8.03;;;4.27;;
37311;SDS011;23197;53.912;9.138;2022-11-20T09:41:15;8.10;;;4.13;;
37311;SDS011;23197;53.912;9.138;2022-11-20T09:54:22;12.13;;;6.67;;
37311;SDS011;23197;53.912;9.138;2022-11-20T09:56:57;11.02;;;6.03;;
37311;SDS011;23197;53.912;9.138;2022-11-20T09:59:31;11.25;;;6.00;;
37311;SDS011;23197;53.912;9.138;2022-11-20T10:01:58;9.70;;;5.57;;
37311;SDS011;23197;53.912;9.138;2022-11-20T10:04:25;10.17;;;5.73;;
37311;SDS011;23197;53.912;9.138;2022-11-20T10:07:08;11.63;;;6.27;;
37311;SDS011;23197;53.912;9.138;2022-11-20T10:09:49;9.57;;;6.17;;
37311;SDS011;23197;53.912;9.138;2022-11-20T10:12:20;10.27;;;6.28;;
37311;SDS011;23197;53.912;9.138;2022-11-20T10:17:16;8.07;;;5.30;;
37311;SDS011;23197;53.912;9.138;2022-11-20T10:30:14;6.25;;;4.13;;
37311;SDS011;23197;53.912;9.138;2022-11-20T10:32:43;6.75;;;4.72;;
37311;SDS011;23197;53.912;9.138;2022-11-20T10:35:16;6.47;;;4.28;;
37311;SDS011;23197;53.912;9.138;2022-11-20T10:37:47;6.25;;;4.18;;
37311;SDS011;23197;53.912;9.138;2022-11-20T10:40:29;6.40;;;4.35;;
37311;SDS011;23197;53.912;9.138;2022-11-20T10:48:15;4.85;;;3.10;;
37311;SDS011;23197;53.912;9.138;2022-11-20T10:50:57;5.18;;;3.40;;
37311;SDS011;23197;53.912;9.138;2022-11-20T10:56:06;5.10;;;3.13;;
37311;SDS011;23197;53.912;9.138;2022-11-20T11:01:44;4.37;;;2.77;;
37311;SDS011;23197;53.912;9.138;2022-11-20T11:04:52;5.13;;;2.90;;
37311;SDS011;23197;53.912;9.138;2022-11-20T11:09:44;6.70;;;3.80;;
37311;SDS011;23197;53.912;9.138;2022-11-20T11:12:14;9.47;;;7.07;;
37311;SDS011;23197;53.912;9.138;2022-11-20T11:14:47;8.23;;;6.23;;
37311;SDS011;23197;53.912;9.138;2022-11-20T11:17:30;6.00;;;4.20;;
37311;SDS011;23197;53.912;9.138;2022-11-20T11:20:18;6.47;;;4.40;;
37311;SDS011;23197;53.912;9.138;2022-11-20T11:23:10;6.50;;;4.40;;
37311;SDS011;23197;53.912;9.138;2022-11-20T11:30:52;5.17;;;3.20;;
37311;SDS011;23197;53.912;9.138;2022-11-20T11:33:22;14.27;;;8.00;;
37311;SDS011;23197;53.912;9.138;2022-11-20T11:35:50;7.67;;;5.00;;
37311;SDS011;23197;53.912;9.138;2022-11-20T11:38:39;6.70;;;3.50;;
37311;SDS011;23197;53.912;9.138;2022-11-20T11:41:05;5.90;;;4.10;;
37311;SDS011;23197;53.912;9.138;2022-11-20T11:43:35;5.90;;;3.80;;
37311;SDS011;23197;53.912;9.138;2022-11-20T11:48:55;7.03;;;4.80;;
37311;SDS011;23197;53.912;9.138;2022-11-20T11:51:23;7.93;;;4.90;;
37311;SDS011;23197;53.912;9.138;2022-11-20T11:54:05;5.20;;;3.33;;
37311;SDS011;23197;53.912;9.138;2022-11-20T11:56:42;5.60;;;3.27;;
37311;SDS011;23197;53.912;9.138;2022-11-20T11:59:11;5.10;;;3.20;;
37311;SDS011;23197;53.912;9.138;2022-11-20T12:01:47;7.03;;;3.53;;
37311;SDS011;23197;53.912;9.138;2022-11-20T12:07:07;5.17;;;3.07;;
37311;SDS011;23197;53.912;9.138;2022-11-20T12:09:42;5.00;;;3.03;;
37311;SDS011;23197;53.912;9.138;2022-11-20T12:12:17;6.77;;;4.30;;
37311;SDS011;23197;53.912;9.138;2022-11-20T12:14:47;5.55;;;3.20;;
37311;SDS011;23197;53.912;9.138;2022-11-20T12:17:15;5.57;;;3.20;;
37311;SDS011;23197;53.912;9.138;2022-11-20T12:19:40;6.43;;;3.20;;
37311;SDS011;23197;53.912;9.138;2022-11-20T12:22:12;5.40;;;3.20;;
37311;SDS011;23197;53.912;9.138;2022-11-20T12:33:42;6.23;;;4.20;;
37311;SDS011;23197;53.912;9.138;2022-11-20T12:39:05;6.78;;;4.20;;
37311;SDS011;23197;53.912;9.138;2022-11-20T12:42:00;8.80;;;5.20;;
37311;SDS011;23197;53.912;9.138;2022-11-20T12:45:04;10.27;;;5.90;;
37311;SDS011;23197;53.912;9.138;2022-11-20T13:08:00;7.18;;;4.95;;
37311;SDS011;23197;53.912;9.138;2022-11-20T13:16:32;9.07;;;6.57;;
37311;SDS011;23197;53.912;9.138;2022-11-20T13:19:03;8.77;;;5.40;;
37311;SDS011;23197;53.912;9.138;2022-11-20T13:21:37;5.32;;;3.70;;
37311;SDS011;23197;53.912;9.138;2022-11-20T13:24:19;5.25;;;3.70;;
37311;SDS011;23197;53.912;9.138;2022-11-20T13:26:48;5.18;;;3.10;;
37311;SDS011;23197;53.912;9.138;2022-11-20T13:29:24;4.65;;;3.30;;
37311;SDS011;23197;53.912;9.138;2022-11-20T13:31:50;9.67;;;6.27;;
37311;SDS011;23197;53.912;9.138;2022-11-20T13:34:25;5.70;;;3.97;;
37311;SDS011;23197;53.912;9.138;2022-11-20T13:36:53;6.43;;;3.25;;
37311;SDS011;23197;53.912;9.138;2022-11-20T13:39:27;6.72;;;4.85;;
37311;SDS011;23197;53.912;9.138;2022-11-20T13:42:01;6.53;;;3.70;;
37311;SDS011;23197;53.912;9.138;2022-11-20T13:44:48;4.18;;;2.88;;
37311;SDS011;23197;53.912;9.138;2022-11-20T13:47:27;4.93;;;3.20;;
37311;SDS011;23197;53.912;9.138;2022-11-20T13:49:57;4.57;;;2.90;;
37311;SDS011;23197;53.912;9.138;2022-11-20T13:52:42;3.90;;;2.63;;
37311;SDS011;23197;53.912;9.138;2022-11-20T13:57:52;5.53;;;3.15;;
37311;SDS011;23197;53.912;9.138;2022-11-20T14:00:48;4.60;;;3.20;;
37311;SDS011;23197;53.912;9.138;2022-11-20T14:03:21;8.80;;;6.73;;
37311;SDS011;23197;53.912;9.138;2022-11-20T14:05:52;6.63;;;3.90;;
37311;SDS011;23197;53.912;9.138;2022-11-20T14:08:30;4.70;;;3.00;;
37311;SDS011;23197;53.912;9.138;2022-11-20T14:11:24;5.07;;;3.30;;
37311;SDS011;23197;53.912;9.138;2022-11-20T14:14:13;5.60;;;3.50;;
37311;SDS011;23197;53.912;9.138;2022-11-20T14:16:42;5.97;;;3.33;;
37311;SDS011;23197;53.912;9.138;2022-11-20T14:22:09;4.67;;;3.10;;
37311;SDS011;23197;53.912;9.138;2022-11-20T14:24:44;6.10;;;3.50;;
37311;SDS011;23197;53.912;9.138;2022-11-20T14:27:17;8.23;;;3.97;;
37311;SDS011;23197;53.912;9.138;2022-11-20T14:32:11;5.57;;;3.13;;
37311;SDS011;23197;53.912;9.138;2022-11-20T14:34:41;5.60;;;3.00;;
37311;SDS011;23197;53.912;9.138;2022-11-20T14:37:13;6.53;;;3.60;;
37311;SDS011;23197;53.912;9.138;2022-11-20T14:39:49;5.27;;;3.20;;
37311;SDS011;23197;53.912;9.138;2022-11-20T14:42:22;5.87;;;3.67;;
37311;SDS011;23197;53.912;9.138;2022-11-20T14:44:50;5.70;;;3.50;;
37311;SDS011;23197;53.912;9.138;2022-11-20T14:47:22;6.93;;;3.30;;
37311;SDS011;23197;53.912;9.138;2022-11-20T14:49:50;4.40;;;2.50;;
37311;SDS011;23197;53.912;9.138;2022-11-20T14:52:20;5.97;;;3.17;;
37311;SDS011;23197;53.912;9.138;2022-11-20T14:54:48;4.97;;;3.03;;
37311;SDS011;23197;53.912;9.138;2022-11-20T14:57:20;5.23;;;3.20;;
37311;SDS011;23197;53.912;9.138;2022-11-20T14:59:48;5.93;;;3.20;;
37311;SDS011;23197;53.912;9.138;2022-11-20T15:02:13;5.67;;;3.03;;
37311;SDS011;23197;53.912;9.138;2022-11-20T15:04:47;7.17;;;4.37;;
37311;SDS011;23197;53.912;9.138;2022-11-20T15:07:23;5.97;;;3.60;;
37311;SDS011;23197;53.912;9.138;2022-11-20T15:10:27;5.20;;;3.07;;
37311;SDS011;23197;53.912;9.138;2022-11-20T15:12:52;5.07;;;2.77;;
37311;SDS011;23197;53.912;9.138;2022-11-20T15:15:21;4.60;;;2.70;;
37311;SDS011;23197;53.912;9.138;2022-11-20T15:17:56;6.20;;;3.17;;
37311;SDS011;23197;53.912;9.138;2022-11-20T15:20:23;8.27;;;3.50;;
37311;SDS011;23197;53.912;9.138;2022-11-20T15:22:53;6.67;;;3.83;;
37311;SDS011;23197;53.912;9.138;2022-11-20T15:25:18;8.57;;;4.13;;
37311;SDS011;23197;53.912;9.138;2022-11-20T15:27:44;10.20;;;5.20;;
37311;SDS011;23197;53.912;9.138;2022-11-20T15:30:12;8.83;;;5.20;;
37311;SDS011;23197;53.912;9.138;2022-11-20T15:32:43;8.47;;;5.10;;
37311;SDS011;23197;53.912;9.138;2022-11-20T15:35:10;12.33;;;6.33;;
37311;SDS011;23197;53.912;9.138;2022-11-20T15:37:36;11.73;;;6.73;;
37311;SDS011;23197;53.912;9.138;2022-11-20T15:40:02;13.17;;;7.10;;
37311;SDS011;23197;53.912;9.138;2022-11-20T15:42:28;12.23;;;6.37;;
37311;SDS011;23197;53.912;9.138;2022-11-20T15:44:54;9.63;;;5.73;;
37311;SDS011;23197;53.912;9.138;2022-11-20T15:47:20;9.53;;;5.80;;
37311;SDS011;23197;53.912;9.138;2022-11-20T15:49:51;10.77;;;5.83;;
37311;SDS011;23197;53.912;9.138;2022-11-20T15:52:17;11.40;;;6.23;;
37311;SDS011;23197;53.912;9.138;2022-11-20T15:54:42;12.60;;;7.20;;
37311;SDS011;23197;53.912;9.138;2022-11-20T15:57:08;12.57;;;6.43;;
37311;SDS011;23197;53.912;9.138;2022-11-20T15:59:34;8.87;;;4.80;;
37311;SDS011;23197;53.912;9.138;2022-11-20T16:02:02;8.23;;;4.90;;
37311;SDS011;23197;53.912;9.138;2022-11-20T16:04:27;7.90;;;4.60;;
37311;SDS011;23197;53.912;9.138;2022-11-20T16:06:53;8.63;;;4.43;;
37311;SDS011;23197;53.912;9.138;2022-11-20T16:09:18;8.20;;;4.47;;
37311;SDS011;23197;53.912;9.138;2022-11-20T16:11:44;10.13;;;5.23;;
37311;SDS011;23197;53.912;9.138;2022-11-20T16:14:10;12.40;;;6.37;;
37311;SDS011;23197;53.912;9.138;2022-11-20T16:16:54;14.40;;;7.93;;
37311;SDS011;23197;53.912;9.138;2022-11-20T16:19:20;14.67;;;8.53;;
37311;SDS011;23197;53.912;9.138;2022-11-20T16:21:45;16.47;;;9.37;;
37311;SDS011;23197;53.912;9.138;2022-11-20T16:24:12;16.23;;;8.93;;
37311;SDS011;23197;53.912;9.138;2022-11-20T16:26:39;16.83;;;9.90;;
37311;SDS011;23197;53.912;9.138;2022-11-20T16:29:05;16.33;;;8.93;;
37311;SDS011;23197;53.912;9.138;2022-11-20T16:31:32;15.13;;;8.50;;
37311;SDS011;23197;53.912;9.138;2022-11-20T16:33:59;12.27;;;7.63;;
37311;SDS011;23197;53.912;9.138;2022-11-20T16:36:27;12.47;;;7.23;;